createdAt,value
2022-09-18T00:00:00.215Z,100938.59
2022-09-18T00:05:01.750Z,100940.59
2022-09-18T00:10:03.521Z,100944.28
2022-09-18T00:15:05.568Z,100935.13
2022-09-18T00:20:07.883Z,100933.47
2022-09-18T00:25:09.532Z,100936.13
2022-09-18T00:30:11.406Z,100938.44
2022-09-18T00:35:12.916Z,100942.44
2022-09-18T00:40:14.475Z,100933.56
2022-09-18T00:45:16.170Z,100925.25
2022-09-18T00:50:24.524Z,100933.50
2022-09-18T00:55:31.742Z,100931.13
2022-09-18T01:00:33.457Z,100932.56
2022-09-18T01:05:46.033Z,100935.63
2022-09-18T01:11:08.260Z,100938.69
2022-09-18T01:16:27.906Z,100919.09
2022-09-18T01:21:42.550Z,100933.22
2022-09-18T01:26:50.219Z,100930.16
2022-09-18T01:32:02.623Z,100931.41
2022-09-18T01:37:25.567Z,100941.16
2022-09-18T01:42:30.515Z,100941.34
2022-09-18T01:47:41.071Z,100937.09
2022-09-18T01:52:49.589Z,100937.63
2022-09-18T01:57:58.570Z,100932.31
2022-09-18T02:03:11.940Z,100938.31
2022-09-18T02:08:53.662Z,100939.22
2022-09-18T02:14:11.341Z,100931.78
2022-09-18T02:19:40.110Z,100926.69
2022-09-18T02:24:44.821Z,100924.00
2022-09-18T02:29:47.413Z,100925.88
2022-09-18T02:34:49.455Z,100916.81
2022-09-18T02:40:12.915Z,100921.25
2022-09-18T02:45:28.744Z,100923.56
2022-09-18T02:50:51.875Z,100930.81
2022-09-18T02:56:05.501Z,100927.22
2022-09-18T03:01:11.479Z,100915.53
2022-09-18T03:06:13.942Z,100924.59
2022-09-18T03:11:15.657Z,100925.16
2022-09-18T03:16:19.265Z,100904.97
2022-09-18T03:21:20.878Z,100904.91
2022-09-18T03:26:23.755Z,100903.91
2022-09-18T03:31:25.474Z,100904.72
2022-09-18T03:36:27.686Z,100892.94
2022-09-18T03:41:31.154Z,100901.47
2022-09-18T03:46:32.801Z,100896.22
2022-09-18T03:51:37.614Z,100913.66
2022-09-18T03:56:41.079Z,100910.31
2022-09-18T04:01:57.739Z,100905.81
2022-09-18T04:07:02.287Z,100903.34
2022-09-18T04:12:33.824Z,100909.78
2022-09-18T04:17:44.025Z,100921.19
2022-09-18T04:22:45.980Z,100916.03
2022-09-18T04:27:47.590Z,100915.78
2022-09-18T04:32:50.335Z,100916.88
2022-09-18T04:37:53.303Z,100911.47
2022-09-18T04:42:54.998Z,100908.41
2022-09-18T04:47:56.551Z,100900.88
2022-09-18T04:52:59.858Z,100908.44
2022-09-18T04:58:02.234Z,100896.09
2022-09-18T05:03:05.739Z,100903.34
2022-09-18T05:08:09.285Z,100909.56
2022-09-18T05:13:10.779Z,100904.06
2022-09-18T05:18:18.089Z,100900.34
2022-09-18T05:23:19.696Z,100910.75
2022-09-18T05:28:21.202Z,100906.19
2022-09-18T05:33:25.004Z,100898.63
2022-09-18T05:38:27.283Z,100895.69
2022-09-18T05:43:30.128Z,100906.97
2022-09-18T05:48:31.634Z,100904.00
2022-09-18T05:53:33.212Z,100915.72
2022-09-18T05:58:51.228Z,100900.94
2022-09-18T06:03:52.859Z,100901.94
2022-09-18T06:08:57.437Z,100900.13
2022-09-18T06:14:00.076Z,100904.44
2022-09-18T06:19:01.772Z,100911.13
2022-09-18T06:24:03.568Z,100912.28
2022-09-18T06:29:18.932Z,100925.88
2022-09-18T06:34:25.077Z,100923.91
2022-09-18T06:39:30.391Z,100932.41
2022-09-18T06:44:33.992Z,100925.38
2022-09-18T06:49:39.435Z,100917.56
2022-09-18T06:54:41.107Z,100919.28
2022-09-18T06:59:42.648Z,100917.22
2022-09-18T07:04:44.208Z,100923.03
2022-09-18T07:09:46.031Z,100925.72
2022-09-18T07:15:10.683Z,100925.50
2022-09-18T07:20:13.622Z,100916.25
2022-09-18T07:25:20.410Z,100920.38
2022-09-18T07:30:22.896Z,100909.66
2022-09-18T07:35:28.138Z,100914.81
2022-09-18T07:40:30.849Z,100926.19
2022-09-18T07:45:44.448Z,100910.69
2022-09-18T07:50:45.982Z,100911.94
2022-09-18T07:55:47.515Z,100920.22
2022-09-18T08:00:51.792Z,100906.75
2022-09-18T08:05:55.007Z,100904.44
2022-09-18T08:10:56.762Z,100906.91
2022-09-18T08:16:21.957Z,100913.81
2022-09-18T08:21:42.399Z,100913.84
2022-09-18T08:26:46.706Z,100920.78
2022-09-18T08:31:52.775Z,100915.28
2022-09-18T08:36:56.044Z,100913.47
2022-09-18T08:42:32.283Z,100914.25
2022-09-18T08:47:42.818Z,100917.13
2022-09-18T08:52:50.126Z,100923.00
2022-09-18T08:58:15.783Z,100909.78
2022-09-18T09:03:24.768Z,100913.63
2022-09-18T09:08:31.228Z,100921.19
2022-09-18T09:13:51.899Z,100916.31
2022-09-18T09:19:15.017Z,100910.25
2022-09-18T09:24:38.432Z,100913.88
2022-09-18T09:29:43.858Z,100911.84
2022-09-18T09:35:10.191Z,100903.72
2022-09-18T09:40:47.296Z,100919.00
2022-09-18T09:45:52.944Z,100914.88
2022-09-18T09:51:13.856Z,100902.59
2022-09-18T09:56:47.758Z,100902.91
2022-09-18T10:01:59.483Z,100895.50
2022-09-18T10:07:10.117Z,100891.75
2022-09-18T10:12:55.628Z,100892.38
2022-09-18T10:18:04.258Z,100895.59
2022-09-18T10:23:33.724Z,100882.84
2022-09-18T10:28:37.011Z,100889.31
2022-09-18T10:33:50.664Z,100898.44
2022-09-18T10:38:59.370Z,100892.66
2022-09-18T10:44:25.454Z,100885.50
2022-09-18T10:49:37.786Z,100871.75
2022-09-18T10:54:39.397Z,100877.63
2022-09-18T10:59:45.283Z,100874.22
2022-09-18T11:04:48.148Z,100881.00
2022-09-18T11:09:52.673Z,100879.75
2022-09-18T11:15:04.949Z,100885.63
2022-09-18T11:20:07.377Z,100871.28
2022-09-18T11:25:29.332Z,100842.69
2022-09-18T11:31:01.911Z,100852.84
2022-09-18T11:36:10.981Z,100859.63
2022-09-18T11:41:20.622Z,100852.63
2022-09-18T11:46:45.278Z,100864.81
2022-09-18T11:51:55.610Z,100859.41
2022-09-18T11:57:15.827Z,100862.69
2022-09-18T12:02:37.886Z,100860.41
2022-09-18T12:07:50.120Z,100855.38
2022-09-18T12:13:11.377Z,100847.16
2022-09-18T12:18:22.266Z,100862.38
2022-09-18T12:23:25.688Z,100865.16
2022-09-18T12:28:57.724Z,100848.34
2022-09-18T12:34:14.605Z,100845.47
2022-09-18T12:39:28.904Z,100838.91
2022-09-18T12:44:56.696Z,100830.63
2022-09-18T12:50:13.478Z,100836.28
2022-09-18T12:55:23.872Z,100823.16
2022-09-18T13:00:28.185Z,100828.00
2022-09-18T13:05:40.500Z,100818.13
2022-09-18T13:10:44.669Z,100823.72
2022-09-18T13:15:51.462Z,100828.63
2022-09-18T13:20:55.629Z,100822.13
2022-09-18T13:25:58.387Z,100824.75
2022-09-18T13:31:31.544Z,100832.00
2022-09-18T13:36:40.839Z,100836.59
2022-09-18T13:41:50.047Z,100832.63
2022-09-18T13:46:55.113Z,100843.13
2022-09-18T13:52:16.798Z,100841.13
2022-09-18T13:57:19.824Z,100844.16
2022-09-18T14:02:27.098Z,100837.56
2022-09-18T14:07:31.603Z,100842.28
2022-09-18T14:12:35.503Z,100846.25
2022-09-18T14:17:37.155Z,100833.09
2022-09-18T14:22:38.680Z,100835.97
2022-09-18T14:27:52.417Z,100833.09
2022-09-18T14:33:10.601Z,100832.13
2022-09-18T14:38:28.111Z,100830.03
2022-09-18T14:43:30.766Z,100834.94
2022-09-18T14:48:37.614Z,100823.56
2022-09-18T14:53:42.681Z,100829.09
2022-09-18T14:58:46.635Z,100818.72
2022-09-18T15:03:51.140Z,100810.44
2022-09-18T15:08:55.884Z,100806.72
2022-09-18T15:13:57.397Z,100808.34
2022-09-18T15:18:59.924Z,100803.00
2022-09-18T15:24:03.108Z,100800.19
2022-09-18T15:29:11.629Z,100803.34
2022-09-18T15:34:20.115Z,100800.28
2022-09-18T15:39:40.449Z,100805.41
2022-09-18T15:44:50.829Z,100792.19
2022-09-18T15:49:52.821Z,100799.50
2022-09-18T15:55:45.802Z,100802.44
2022-09-18T16:00:57.010Z,100804.44
2022-09-18T16:06:02.171Z,100801.44
2022-09-18T16:11:05.517Z,100799.41
2022-09-18T16:16:09.763Z,100794.56
2022-09-18T16:21:11.348Z,100800.84
2022-09-18T16:26:34.616Z,100794.63
2022-09-18T16:31:36.892Z,100803.19
2022-09-18T16:36:41.741Z,100797.84
2022-09-18T16:41:44.212Z,100797.94
2022-09-18T16:47:00.318Z,100800.56
2022-09-18T16:52:02.178Z,100794.13
2022-09-18T16:57:09.589Z,100792.16
2022-09-18T17:02:14.542Z,100786.50
2022-09-18T17:07:16.098Z,100787.34
2022-09-18T17:12:17.641Z,100792.66
2022-09-18T17:17:19.740Z,100796.72
2022-09-18T17:22:22.838Z,100801.78
2022-09-18T17:27:24.711Z,100799.44
2022-09-18T17:32:26.373Z,100806.91
2022-09-18T17:37:28.801Z,100807.00
2022-09-18T17:42:30.358Z,100814.94
2022-09-18T17:47:32.255Z,100827.25
2022-09-18T17:52:35.543Z,100846.28
2022-09-18T17:57:37.024Z,100862.34
2022-09-18T18:02:39.979Z,100850.94
2022-09-18T18:07:41.486Z,100866.00
2022-09-18T18:12:43.115Z,100869.25
2022-09-18T18:17:44.636Z,100883.53
2022-09-18T18:22:46.167Z,100887.78
2022-09-18T18:27:47.706Z,100886.66
2022-09-18T18:32:49.413Z,100900.47
2022-09-18T18:37:50.941Z,100915.88
2022-09-18T18:42:53.203Z,100914.69
2022-09-18T18:47:54.703Z,100906.13
2022-09-18T18:52:56.207Z,100907.47
2022-09-18T18:57:57.725Z,100897.81
2022-09-18T19:02:59.219Z,100900.25
2022-09-18T19:08:00.936Z,100911.38
2022-09-18T19:13:02.458Z,100896.75
2022-09-18T19:18:04.105Z,100891.06
2022-09-18T19:23:05.674Z,100924.81
2022-09-18T19:28:07.190Z,100943.50
2022-09-18T19:33:14.575Z,100934.16
2022-09-18T19:38:16.187Z,100941.47
2022-09-18T19:43:30.983Z,100940.66
2022-09-18T19:48:34.114Z,100944.22
2022-09-18T19:53:35.613Z,100950.69
2022-09-18T19:58:38.718Z,100959.75
2022-09-18T20:03:40.486Z,100963.75
2022-09-18T20:08:41.980Z,100970.06
2022-09-18T20:13:43.522Z,100977.94
2022-09-18T20:18:46.274Z,100974.03
2022-09-18T20:23:47.974Z,100972.38
2022-09-18T20:28:49.620Z,100973.84
2022-09-18T20:33:58.795Z,100973.34
2022-09-18T20:39:00.372Z,100984.78
2022-09-18T20:44:02.020Z,100979.66
2022-09-18T20:49:03.610Z,100985.25
2022-09-18T20:54:06.398Z,100990.31
2022-09-18T20:59:10.391Z,100981.66
2022-09-18T21:04:13.982Z,100985.88
2022-09-18T21:09:15.492Z,100990.97
2022-09-18T21:14:17.035Z,100986.63
2022-09-18T21:19:19.535Z,100980.84
2022-09-18T21:24:21.431Z,100987.09
2022-09-18T21:29:25.687Z,100991.50
2022-09-18T21:34:29.965Z,100993.75
2022-09-18T21:39:32.662Z,100981.19
2022-09-18T21:44:34.341Z,100972.03
2022-09-18T21:49:36.088Z,100984.16
2022-09-18T21:54:37.584Z,100984.47
2022-09-18T21:59:39.180Z,100979.91
2022-09-18T22:04:40.710Z,100993.47
2022-09-18T22:09:42.263Z,100995.28
2022-09-18T22:14:43.903Z,100994.44
2022-09-18T22:19:45.411Z,100994.59
2022-09-18T22:24:47.003Z,100994.13
2022-09-18T22:29:48.492Z,100996.88
2022-09-18T22:34:49.997Z,101005.41
2022-09-18T22:39:51.510Z,100993.09
2022-09-18T22:44:53.104Z,101000.34
2022-09-18T22:49:54.588Z,101002.97
2022-09-18T22:54:56.088Z,101007.50
2022-09-18T22:59:57.552Z,101015.41
2022-09-18T23:04:59.158Z,101011.91
2022-09-18T23:10:00.729Z,101020.31
2022-09-18T23:15:02.237Z,101021.13
2022-09-18T23:20:03.982Z,101025.38
2022-09-18T23:25:06.028Z,101015.38
2022-09-18T23:30:08.206Z,101014.72
2022-09-18T23:35:09.734Z,101029.25
2022-09-18T23:40:11.325Z,101032.06
2022-09-18T23:45:12.842Z,101032.66
2022-09-18T23:50:14.393Z,101034.47
2022-09-18T23:55:15.991Z,101041.63
